Time;durP1;ratioP1;P1;durP2;ratioP2;P2;SDS_P1;SDS_P2;PMS_P1;PMS_P2;Temp;Humidity;BMP_temperature;BMP_pressure;BME280_temperature;BME280_humidity;BME280_pressure;Samples;Min_cycle;Max_cycle;Signal;HPM_P1;HPM_P2
2023/01/12 00:00:33;;;;;;;3.47;1.00;;;18.70;69.50;;;;;;7402052;19;19978;-69
2023/01/12 00:03:03;;;;;;;3.25;1.13;;;18.70;69.50;;;;;;7411702;19;20373;-69
2023/01/12 00:05:32;;;;;;;2.78;0.20;;;18.70;69.50;;;;;;7408565;19;19918;-69
2023/01/12 00:08:01;;;;;;;3.05;0.90;;;18.70;69.60;;;;;;7410803;19;19915;-69
2023/01/12 00:10:30;;;;;;;2.45;0.90;;;18.60;69.60;;;;;;7408808;19;19925;-69
2023/01/12 00:13:00;;;;;;;1.60;0.38;;;18.60;69.60;;;;;;7409014;19;20312;-69
2023/01/12 00:16:33;;;;;;;;;;;18.60;69.60;;;;;;7411004;19;19948;-69
2023/01/12 00:18:30;;;;;;;3.83;0.55;;;18.50;69.50;;;;;;7410245;19;19943;-68
2023/01/12 00:20:59;;;;;;;2.72;1.10;;;18.50;69.70;;;;;;7410327;19;19929;-69
2023/01/12 00:23:30;;;;;;;3.83;0.32;;;18.40;69.70;;;;;;7411014;19;19923;-69
2023/01/12 00:25:59;;;;;;;3.95;0.73;;;18.50;69.70;;;;;;7408140;19;19926;-70
2023/01/12 00:28:28;;;;;;;4.05;0.73;;;18.40;69.70;;;;;;7408679;19;20333;-69
2023/01/12 00:31:02;;;;;;;2.67;0.30;;;18.40;69.70;;;;;;7409941;19;20307;-69
2023/01/12 00:33:33;;;;;;;2.63;0.73;;;18.40;69.70;;;;;;7410831;19;19926;-69
2023/01/12 00:36:04;;;;;;;2.92;0.90;;;18.40;69.80;;;;;;7406797;19;19933;-69
2023/01/12 00:38:34;;;;;;;2.80;0.32;;;18.30;69.80;;;;;;7410843;19;20342;-69
2023/01/12 00:41:07;;;;;;;3.70;0.90;;;18.30;69.70;;;;;;7408548;19;19918;-69
2023/01/12 00:46:17;;;;;;;3.88;0.63;;;18.20;69.80;;;;;;7406701;19;19915;-69
2023/01/12 00:48:49;;;;;;;4.38;0.63;;;18.20;69.80;;;;;;7408993;19;20280;-69
2023/01/12 00:51:17;;;;;;;4.63;1.08;;;18.20;70.50;;;;;;7408598;19;19918;-69
2023/01/12 00:53:46;;;;;;;1.77;0.20;;;18.20;69.90;;;;;;7407529;19;19907;-69
2023/01/12 00:56:16;;;;;;;2.88;0.30;;;18.20;69.90;;;;;;7409885;19;19924;-69
2023/01/12 00:58:44;;;;;;;3.55;0.22;;;18.20;70.10;;;;;;7410393;19;19949;-69
2023/01/12 01:01:13;;;;;;;2.60;0.70;;;18.10;70.00;;;;;;7407847;19;19915;-69
2023/01/12 01:03:42;;;;;;;2.65;0.98;;;18.10;70.00;;;;;;7407730;19;19925;-69
2023/01/12 01:06:14;;;;;;;3.65;0.82;;;18.10;70.10;;;;;;7406298;19;20576;-69
2023/01/12 01:08:43;;;;;;;3.78;0.82;;;18.10;70.10;;;;;;7410432;19;19914;-69
2023/01/12 01:11:14;;;;;;;2.85;1.02;;;18.10;70.10;;;;;;7409262;19;19921;-69
2023/01/12 01:13:43;;;;;;;3.10;0.88;;;18.00;70.10;;;;;;7406781;19;19922;-69
2023/01/12 01:16:14;;;;;;;3.55;0.90;;;18.00;70.10;;;;;;7407014;19;19919;-69
2023/01/12 01:18:44;;;;;;;4.90;0.40;;;18.00;70.10;;;;;;7407125;19;19922;-69
2023/01/12 01:21:17;;;;;;;3.33;0.30;;;18.00;70.10;;;;;;7407614;19;19919;-69
2023/01/12 01:23:47;;;;;;;2.20;0.85;;;18.00;70.10;;;;;;7408460;19;19929;-69
2023/01/12 01:26:16;;;;;;;;;;;18.00;70.10;;;;;;7412235;19;19920;-69
2023/01/12 01:28:45;;;;;;;3.58;0.38;;;18.00;70.10;;;;;;7407172;19;19997;-69
2023/01/12 01:31:17;;;;;;;2.15;0.60;;;18.00;70.10;;;;;;7409094;19;19919;-69
2023/01/12 01:33:46;;;;;;;4.10;0.22;;;18.10;70.00;;;;;;7408645;19;19926;-69
2023/01/12 01:36:18;;;;;;;;;;;18.10;69.90;;;;;;7406925;19;20001;-68
2023/01/12 01:38:48;;;;;;;2.78;0.80;;;18.20;69.80;;;;;;7407660;19;19934;-70
2023/01/12 01:41:21;;;;;;;2.70;0.88;;;18.20;69.70;;;;;;7408082;19;19919;-69
2023/01/12 01:43:53;;;;;;;4.55;1.83;;;18.30;69.60;;;;;;7407693;19;19955;-69
2023/01/12 01:46:31;;;;;;;3.08;0.95;;;18.40;69.50;;;;;;7405664;19;19925;-69
2023/01/12 01:49:06;;;;;;;3.42;0.50;;;18.50;69.40;;;;;;7405431;19;19921;-69
2023/01/12 01:51:38;;;;;;;;;;;18.60;69.20;;;;;;7409546;19;19926;-69
2023/01/12 01:54:07;;;;;;;3.15;0.40;;;18.60;69.20;;;;;;7406677;19;19918;-69
2023/01/12 01:56:36;;;;;;;1.70;0.20;;;18.70;69.00;;;;;;7407129;19;20268;-69
2023/01/12 01:59:09;;;;;;;2.85;0.85;;;18.70;68.80;;;;;;7409541;19;19919;-69
2023/01/12 02:01:39;;;;;;;2.63;0.80;;;18.80;68.80;;;;;;7406883;19;20381;-69
2023/01/12 02:04:08;;;;;;;;;;;18.80;68.80;;;;;;7408099;19;20328;-69
2023/01/12 02:06:40;;;;;;;2.22;0.93;;;18.80;68.80;;;;;;7404878;19;19920;-69
2023/01/12 02:09:13;;;;;;;3.85;0.93;;;18.80;68.80;;;;;;7408620;19;20233;-69
2023/01/12 02:17:21;;;;;;;1.80;0.40;;;18.70;68.80;;;;;;7404970;19;20464;-69
2023/01/12 02:20:32;;;;;;;3.03;0.77;;;18.70;68.90;;;;;;7405837;19;19958;-69
2023/01/12 02:23:40;;;;;;;2.85;0.20;;;18.70;69.50;;;;;;7404305;19;19915;-69
2023/01/12 02:26:40;;;;;;;3.20;0.35;;;18.70;68.90;;;;;;7401474;19;19931;-69
2023/01/12 02:29:39;;;;;;;3.38;0.30;;;18.70;69.00;;;;;;7403126;19;19933;-70
2023/01/12 02:32:17;;;;;;;4.00;0.40;;;18.60;69.00;;;;;;7407252;19;19927;-70
2023/01/12 02:34:55;;;;;;;2.38;0.35;;;18.60;69.10;;;;;;7404512;19;19928;-70
2023/01/12 02:37:38;;;;;;;4.30;0.90;;;18.60;69.10;;;;;;7404685;19;19922;-69
2023/01/12 02:40:12;;;;;;;2.20;0.47;;;18.60;69.10;;;;;;7404312;19;19918;-67
2023/01/12 02:42:41;;;;;;;3.65;0.80;;;18.50;69.10;;;;;;7408289;19;20503;-69
2023/01/12 02:45:24;;;;;;;1.70;0.50;;;18.50;69.20;;;;;;7404654;19;19918;-69
2023/01/12 02:48:00;;;;;;;2.40;0.85;;;18.50;69.20;;;;;;7404923;19;19922;-69
2023/01/12 02:50:36;;;;;;;3.03;0.30;;;18.50;69.30;;;;;;7404857;19;19922;-69
2023/01/12 02:53:10;;;;;;;3.58;0.90;;;18.40;69.30;;;;;;7404840;19;19918;-69
2023/01/12 02:55:41;;;;;;;2.80;0.70;;;18.40;69.40;;;;;;7403198;19;19915;-69
2023/01/12 02:58:14;;;;;;;2.85;0.30;;;18.30;69.40;;;;;;7407089;19;20005;-69
2023/01/12 03:00:45;;;;;;;3.15;1.20;;;18.30;69.40;;;;;;7404617;19;19925;-69
2023/01/12 03:03:18;;;;;;;4.15;1.10;;;18.30;69.40;;;;;;7406034;19;19933;-69
2023/01/12 03:05:47;;;;;;;3.75;0.55;;;18.30;69.50;;;;;;7404216;19;20245;-69
2023/01/12 03:08:19;;;;;;;2.60;0.32;;;18.30;69.50;;;;;;7402631;19;20454;-69
2023/01/12 03:11:10;;;;;;;2.67;0.70;;;18.20;69.50;;;;;;7403536;19;19931;-69
2023/01/12 03:13:43;;;;;;;2.13;0.40;;;18.20;69.60;;;;;;7405275;19;19933;-68
2023/01/12 03:16:14;;;;;;;2.30;0.90;;;18.20;69.60;;;;;;7403738;19;19914;-69
2023/01/12 03:18:51;;;;;;;3.55;0.82;;;18.20;69.70;;;;;;7406476;19;19922;-69
2023/01/12 03:21:27;;;;;;;2.80;0.85;;;18.20;69.80;;;;;;7404660;19;20363;-68
2023/01/12 03:24:04;;;;;;;3.35;0.30;;;18.10;69.70;;;;;;7405311;19;19930;-69
2023/01/12 03:26:35;;;;;;;2.45;0.90;;;18.10;69.80;;;;;;7402789;19;19930;-69
2023/01/12 03:29:09;;;;;;;2.85;0.20;;;18.10;69.90;;;;;;7405969;19;19928;-69
2023/01/12 03:31:39;;;;;;;3.05;0.60;;;18.10;69.90;;;;;;7406591;19;19914;-69
2023/01/12 03:34:11;;;;;;;2.33;0.70;;;18.10;69.90;;;;;;7403614;19;19917;-69
2023/01/12 03:36:52;;;;;;;3.67;0.80;;;18.00;69.90;;;;;;7401482;19;19914;-69
2023/01/12 03:39:29;;;;;;;2.17;0.40;;;18.00;69.80;;;;;;7402867;19;19911;-69
2023/01/12 03:42:03;;;;;;;2.47;0.82;;;18.00;69.90;;;;;;7402812;19;19915;-69
2023/01/12 03:44:40;;;;;;;2.78;0.85;;;18.00;69.90;;;;;;7402818;19;19982;-69
2023/01/12 03:47:14;;;;;;;2.38;0.40;;;18.00;69.90;;;;;;7405991;19;19914;-68
2023/01/12 03:49:50;;;;;;;2.55;0.40;;;18.10;69.90;;;;;;7400876;19;19919;-69
2023/01/12 03:52:19;;;;;;;2.97;0.28;;;18.10;69.80;;;;;;7402696;19;19919;-69
2023/01/12 03:54:51;;;;;;;2.22;0.28;;;18.20;69.80;;;;;;7402480;19;19923;-69
2023/01/12 03:57:20;;;;;;;3.85;1.10;;;18.20;69.70;;;;;;7406110;19;20321;-69
2023/01/12 03:59:49;;;;;;;2.95;0.35;;;18.30;69.60;;;;;;7405455;19;19947;-69
2023/01/12 04:02:19;;;;;;;2.85;0.95;;;18.40;69.50;;;;;;7402875;19;19923;-69
2023/01/12 04:04:50;;;;;;;2.63;0.88;;;18.40;69.30;;;;;;7402932;19;19933;-69
2023/01/12 04:07:19;;;;;;;3.65;0.80;;;18.50;69.90;;;;;;7404088;19;19918;-68
2023/01/12 04:09:48;;;;;;;3.30;0.85;;;18.60;69.10;;;;;;7401872;19;19925;-69
2023/01/12 04:12:20;;;;;;;2.90;0.82;;;18.70;69.00;;;;;;7401867;19;19923;-69
2023/01/12 04:14:49;;;;;;;4.43;1.02;;;18.70;68.90;;;;;;7402219;19;20329;-69
2023/01/12 04:17:22;;;;;;;3.78;0.63;;;18.70;68.80;;;;;;7404865;19;19944;-69
2023/01/12 04:19:54;;;;;;;3.33;1.05;;;18.80;69.40;;;;;;7402829;19;19937;-69
2023/01/12 04:25:08;;;;;;;2.83;1.00;;;18.80;68.70;;;;;;7400306;19;19922;-69
2023/01/12 04:27:36;;;;;;;1.63;0.70;;;18.80;68.80;;;;;;7403204;19;19919;-69
2023/01/12 04:30:06;;;;;;;2.42;0.43;;;18.80;68.70;;;;;;7404099;19;19919;-69
2023/01/12 04:32:35;;;;;;;3.08;1.00;;;18.80;68.70;;;;;;7401627;19;19954;-69
2023/01/12 04:35:07;;;;;;;2.28;0.28;;;18.70;68.70;;;;;;7399934;19;19930;-69
2023/01/12 04:37:37;;;;;;;2.65;0.75;;;18.80;68.80;;;;;;7401146;19;20476;-69
2023/01/12 04:40:06;;;;;;;2.33;0.82;;;18.70;68.90;;;;;;7401198;19;20343;-69
2023/01/12 04:45:17;;;;;;;1.83;0.60;;;18.70;68.90;;;;;;7400006;19;19919;-69
2023/01/12 04:47:46;;;;;;;2.25;1.05;;;18.70;69.00;;;;;;7399816;19;19919;-69
2023/01/12 04:50:17;;;;;;;2.55;0.75;;;18.60;69.10;;;;;;7409899;19;19925;-70
2023/01/12 04:52:46;;;;;;;2.85;0.63;;;18.60;69.10;;;;;;7407821;19;19925;-69
2023/01/12 04:55:15;;;;;;;2.97;0.35;;;18.60;69.10;;;;;;7406446;19;20329;-69
2023/01/12 04:57:45;;;;;;;2.03;0.20;;;18.60;69.20;;;;;;7411390;19;20268;-69
2023/01/12 05:00:15;;;;;;;3.55;1.00;;;18.50;69.10;;;;;;7406863;19;19931;-69
2023/01/12 05:02:43;;;;;;;;;;;18.50;69.30;;;;;;7412562;19;19921;-70
2023/01/12 05:05:12;;;;;;;2.67;0.68;;;18.50;69.30;;;;;;7407399;19;19919;-69
2023/01/12 05:10:21;;;;;;;1.55;0.13;;;18.50;69.40;;;;;;7409748;19;19923;-69
2023/01/12 05:10:30;;;;;;;2.65;0.38;;;18.40;69.30;;;;;;7409002;19;20297;-69
2023/01/12 05:13:00;;;;;;;2.83;0.85;;;18.40;69.40;;;;;;7407459;19;19921;-69
2023/01/12 05:15:29;;;;;;;2.10;0.63;;;18.30;69.40;;;;;;7406550;19;19911;-69
2023/01/12 05:17:58;;;;;;;2.58;0.20;;;18.30;69.50;;;;;;7409376;19;20021;-69
2023/01/12 05:20:27;;;;;;;2.00;0.95;;;18.30;69.50;;;;;;7407300;19;19914;-69
2023/01/12 05:22:58;;;;;;;3.00;0.75;;;18.30;69.60;;;;;;7407828;19;19918;-69
2023/01/12 05:25:28;;;;;;;3.88;0.85;;;18.30;70.20;;;;;;7406378;19;20561;-69
2023/01/12 05:27:57;;;;;;;2.20;0.30;;;18.20;69.60;;;;;;7409918;19;20287;-69
2023/01/12 05:30:26;;;;;;;2.92;0.25;;;18.20;69.70;;;;;;7406704;19;20248;-69
2023/01/12 05:32:55;;;;;;;3.00;0.40;;;18.20;69.70;;;;;;7406364;19;19973;-70
2023/01/12 05:35:24;;;;;;;2.63;0.20;;;18.20;69.80;;;;;;7405403;19;20370;-69
2023/01/12 05:37:53;;;;;;;2.10;0.75;;;18.10;69.80;;;;;;7410229;19;19933;-69
2023/01/12 05:40:25;;;;;;;2.72;0.70;;;18.10;69.90;;;;;;7407128;19;19918;-69
2023/01/12 05:45:35;;;;;;;3.25;1.05;;;18.10;70.00;;;;;;7405779;19;19918;-69
2023/01/12 05:48:04;;;;;;;2.08;0.68;;;18.10;70.00;;;;;;7406143;19;19977;-69
2023/01/12 05:50:33;;;;;;;1.27;0.10;;;18.00;69.90;;;;;;7406903;19;19937;-69
2023/01/12 05:53:02;;;;;;;2.53;0.70;;;18.00;69.90;;;;;;7406454;19;19935;-69
2023/01/12 05:55:34;;;;;;;1.50;0.25;;;18.00;70.00;;;;;;7405962;19;20265;-69
2023/01/12 05:58:03;;;;;;;2.90;0.60;;;18.00;70.00;;;;;;7406772;19;19982;-69
2023/01/12 06:00:32;;;;;;;1.92;0.20;;;18.00;70.00;;;;;;7405351;19;19926;-69
2023/01/12 06:03:00;;;;;;;2.17;0.57;;;18.00;69.90;;;;;;7406706;19;20292;-69
2023/01/12 06:05:30;;;;;;;4.43;0.77;;;18.10;70.00;;;;;;7408823;19;19926;-69
2023/01/12 06:07:59;;;;;;;1.95;0.50;;;18.10;69.90;;;;;;7407158;19;19921;-69
2023/01/12 06:10:28;;;;;;;1.75;0.50;;;18.20;69.80;;;;;;7405814;19;19994;-69
2023/01/12 06:15:42;;;;;;;1.85;0.15;;;18.30;69.60;;;;;;7404660;19;19919;-69
2023/01/12 06:18:10;;;;;;;1.40;0.60;;;18.30;69.40;;;;;;7405398;19;19914;-69
2023/01/12 06:20:39;;;;;;;1.63;0.65;;;18.50;69.40;;;;;;7407132;19;20358;-69
2023/01/12 06:23:08;;;;;;;2.85;0.93;;;18.50;69.20;;;;;;7403542;19;19963;-69
2023/01/12 06:25:37;;;;;;;2.47;0.63;;;18.60;69.20;;;;;;7405317;19;19921;-68
2023/01/12 06:28:10;;;;;;;1.50;0.45;;;18.70;69.00;;;;;;7404459;19;19925;-69
2023/01/12 06:30:38;;;;;;;1.80;0.17;;;18.70;68.90;;;;;;7409103;19;19987;-69
2023/01/12 06:33:07;;;;;;;1.02;0.10;;;18.70;68.80;;;;;;7404676;19;19918;-69
2023/01/12 06:35:36;;;;;;;1.30;0.20;;;18.80;68.80;;;;;;7404288;19;19918;-70
2023/01/12 06:38:05;;;;;;;1.25;0.10;;;18.80;68.70;;;;;;7409432;19;20298;-68
2023/01/12 06:40:34;;;;;;;2.72;0.70;;;18.80;68.80;;;;;;7405182;19;19923;-70
2023/01/12 06:43:03;;;;;;;0.82;0.20;;;18.80;68.80;;;;;;7404598;19;19918;-70
2023/01/12 06:45:35;;;;;;;1.02;0.10;;;18.70;68.80;;;;;;7407194;19;20384;-69
2023/01/12 06:48:04;;;;;;;1.73;0.40;;;18.70;68.80;;;;;;7403645;19;19921;-69
2023/01/12 06:50:33;;;;;;;2.05;0.45;;;18.70;68.90;;;;;;7404019;19;20348;-70
2023/01/12 06:53:02;;;;;;;;;;;18.70;68.90;;;;;;7406868;19;19974;-69
2023/01/12 06:55:31;;;;;;;2.25;0.20;;;18.70;68.90;;;;;;7403836;19;20323;-69
2023/01/12 06:58:03;;;;;;;2.83;0.88;;;18.60;69.00;;;;;;7402976;19;19966;-69
2023/01/12 07:00:35;;;;;;;2.10;0.20;;;18.60;69.00;;;;;;7406477;19;19964;-70
2023/01/12 07:03:04;;;;;;;1.52;0.10;;;18.60;69.00;;;;;;7405138;19;19911;-70
2023/01/12 07:05:33;;;;;;;1.10;0.40;;;18.60;69.10;;;;;;7404646;19;19968;-70
2023/01/12 07:08:03;;;;;;;1.80;0.35;;;18.60;69.20;;;;;;7403778;19;19918;-70
2023/01/12 07:10:32;;;;;;;1.75;0.20;;;18.50;69.20;;;;;;7402587;19;20318;-70
2023/01/12 07:13:02;;;;;;;1.58;0.65;;;18.50;69.30;;;;;;7404576;19;19919;-69
2023/01/12 07:15:31;;;;;;;1.70;0.10;;;18.50;69.30;;;;;;7406098;19;19990;-71
2023/01/12 07:18:03;;;;;;;2.20;0.10;;;18.40;69.40;;;;;;7403543;19;19929;-81
2023/01/12 07:20:32;;;;;;;1.83;0.65;;;18.40;69.50;;;;;;7405691;19;19917;-81
2023/01/12 07:23:01;;;;;;;1.75;0.50;;;18.40;69.60;;;;;;7403689;19;19919;-69
2023/01/12 07:25:30;;;;;;;1.58;0.47;;;18.40;69.70;;;;;;7403801;19;20355;-69
2023/01/12 07:28:00;;;;;;;1.60;0.10;;;18.40;69.90;;;;;;7404097;19;19927;-70
2023/01/12 07:30:29;;;;;;;1.52;0.47;;;18.30;69.90;;;;;;7403331;19;19925;-69
2023/01/12 07:33:06;;;;;;;1.30;0.63;;;18.30;69.90;;;;;;7405635;19;19938;-70
2023/01/12 07:35:38;;;;;;;1.20;0.65;;;18.30;69.90;;;;;;7403284;19;19915;-69
2023/01/12 07:38:07;;;;;;;1.33;0.20;;;18.30;70.00;;;;;;7404200;19;19982;-69
2023/01/12 07:40:36;;;;;;;1.23;0.10;;;18.20;70.00;;;;;;7402186;19;19973;-68
2023/01/12 07:43:07;;;;;;;1.20;0.10;;;18.20;70.00;;;;;;7403190;19;19918;-69
2023/01/12 07:45:37;;;;;;;1.67;0.57;;;18.20;70.20;;;;;;7404279;19;19929;-68
2023/01/12 07:48:06;;;;;;;0.40;0.00;;;18.10;70.10;;;;;;7400438;19;19971;-70
2023/01/12 07:50:38;;;;;;;1.33;0.52;;;18.20;70.20;;;;;;7406581;19;19914;-69
2023/01/12 07:53:07;;;;;;;0.80;0.10;;;18.10;70.20;;;;;;7402572;19;19967;-69
2023/01/12 07:55:38;;;;;;;2.13;0.50;;;18.10;70.20;;;;;;7402155;19;19918;-69
2023/01/12 07:58:08;;;;;;;1.30;0.55;;;18.10;70.20;;;;;;7402476;19;19911;-68
2023/01/12 08:00:38;;;;;;;0.63;0.10;;;18.10;70.30;;;;;;7403282;19;20256;-69
2023/01/12 08:03:07;;;;;;;;;;;18.00;70.30;;;;;;7404430;19;19918;-70
2023/01/12 08:05:40;;;;;;;1.40;0.55;;;18.10;70.40;;;;;;7402401;19;19918;-69
2023/01/12 08:08:09;;;;;;;1.83;0.50;;;18.00;70.30;;;;;;7401806;19;19926;-69
2023/01/12 08:10:38;;;;;;;0.93;0.50;;;18.00;70.30;;;;;;7402754;19;20336;-69
2023/01/12 08:13:07;;;;;;;1.60;0.60;;;18.10;70.30;;;;;;7401958;19;19919;-69
2023/01/12 08:15:40;;;;;;;1.23;0.20;;;18.10;70.20;;;;;;7401553;19;19914;-69
2023/01/12 08:18:15;;;;;;;1.35;0.75;;;18.20;70.20;;;;;;7401862;19;19981;-69
2023/01/12 08:20:47;;;;;;;1.48;0.40;;;18.20;70.20;;;;;;7401593;19;19925;-69
2023/01/12 08:23:22;;;;;;;0.63;0.10;;;18.30;70.10;;;;;;7404744;19;20244;-69
2023/01/12 08:25:55;;;;;;;1.35;0.43;;;18.30;69.90;;;;;;7408373;19;19922;-69
2023/01/12 08:28:28;;;;;;;1.15;0.30;;;18.40;69.80;;;;;;7407292;19;19929;-69
2023/01/12 08:30:57;;;;;;;1.02;0.10;;;18.50;69.70;;;;;;7410752;19;19952;-69
2023/01/12 08:33:28;;;;;;;0.90;0.32;;;18.60;69.60;;;;;;7407875;19;19915;-69
2023/01/12 08:35:59;;;;;;;1.15;0.60;;;18.70;69.50;;;;;;7409135;19;19943;-70
2023/01/12 08:38:28;;;;;;;1.23;0.43;;;18.80;69.40;;;;;;7407582;19;20361;-69
2023/01/12 08:46:20;;;;;;;1.38;0.15;;;18.80;69.10;;;;;;7407773;19;20301;-69
2023/01/12 08:48:49;;;;;;;0.75;0.20;;;18.90;69.10;;;;;;7406503;19;19974;-69
2023/01/12 08:51:21;;;;;;;1.27;0.40;;;18.90;69.10;;;;;;7411559;19;19926;-67
2023/01/12 08:53:50;;;;;;;1.00;0.10;;;18.80;69.10;;;;;;7407612;19;19925;-69
2023/01/12 08:56:19;;;;;;;1.15;0.45;;;18.80;69.10;;;;;;7407562;19;19955;-69
2023/01/12 08:58:48;;;;;;;1.77;0.50;;;18.80;69.20;;;;;;7407803;19;19923;-69
2023/01/12 09:01:18;;;;;;;1.88;0.55;;;18.80;69.30;;;;;;7407412;19;20343;-69
2023/01/12 09:03:48;;;;;;;1.30;0.50;;;18.80;69.40;;;;;;7410238;19;19937;-69
2023/01/12 09:06:22;;;;;;;0.93;0.60;;;18.70;69.30;;;;;;7407286;19;19949;-69
2023/01/12 09:08:55;;;;;;;1.85;0.50;;;18.70;69.40;;;;;;7406533;19;19922;-69
2023/01/12 09:11:24;;;;;;;0.85;0.55;;;18.70;69.50;;;;;;7407303;19;19915;-69
2023/01/12 09:13:54;;;;;;;1.08;0.10;;;18.70;69.50;;;;;;7407035;19;19911;-69
2023/01/12 09:16:24;;;;;;;2.55;0.73;;;18.70;69.60;;;;;;7407078;19;19926;-69
2023/01/12 09:18:54;;;;;;;1.00;0.57;;;18.60;69.70;;;;;;7406996;19;19911;-70
2023/01/12 09:21:27;;;;;;;1.25;0.57;;;18.60;69.70;;;;;;7407023;19;19906;-69
2023/01/12 09:23:57;;;;;;;2.10;0.75;;;18.60;69.70;;;;;;7408084;19;20348;-69
2023/01/12 09:26:30;;;;;;;2.25;0.20;;;18.60;69.80;;;;;;7405856;19;19919;-69
2023/01/12 09:28:59;;;;;;;1.48;0.30;;;18.60;69.90;;;;;;7410421;19;20282;-69
2023/01/12 09:31:30;;;;;;;2.03;0.10;;;18.50;69.90;;;;;;7406855;19;19915;-69
2023/01/12 09:33:59;;;;;;;2.65;1.75;;;18.50;70.00;;;;;;7407383;19;19922;-69
2023/01/12 09:36:32;;;;;;;2.35;0.15;;;18.50;70.00;;;;;;7405674;19;19915;-69
2023/01/12 09:39:01;;;;;;;2.30;0.65;;;18.50;70.70;;;;;;7407636;19;19919;-69
2023/01/12 09:47:03;;;;;;;1.88;0.40;;;18.40;70.30;;;;;;7407299;19;19911;-69
2023/01/12 09:49:36;;;;;;;1.55;0.63;;;18.40;70.30;;;;;;7403887;19;19922;-69
2023/01/12 09:52:14;;;;;;;2.08;0.68;;;18.30;70.40;;;;;;7406064;19;20377;-69
2023/01/12 09:54:43;;;;;;;1.63;0.17;;;18.30;70.50;;;;;;7405624;19;20397;-70
2023/01/12 09:57:36;;;;;;;2.70;0.25;;;18.30;70.60;;;;;;7405343;19;19914;-68
2023/01/12 10:00:10;;;;;;;1.90;0.77;;;18.30;71.10;;;;;;7410464;19;19914;-69
2023/01/12 10:02:43;;;;;;;1.95;0.50;;;18.20;70.60;;;;;;7405734;19;19935;-69
2023/01/12 10:05:28;;;;;;;4.25;0.82;;;18.20;70.60;;;;;;7405462;19;19926;-70
2023/01/12 10:08:00;;;;;;;3.75;1.08;;;18.20;70.70;;;;;;7405414;19;19919;-69
2023/01/12 10:10:29;;;;;;;1.63;0.20;;;18.20;70.70;;;;;;7403440;19;19911;-69
2023/01/12 10:13:02;;;;;;;2.92;0.77;;;18.20;70.80;;;;;;7406000;19;19919;-69
2023/01/12 10:15:39;;;;;;;4.90;0.77;;;18.20;70.80;;;;;;7408628;19;19928;-69
2023/01/12 10:18:13;;;;;;;2.55;0.60;;;18.20;71.00;;;;;;7407301;19;19923;-69
2023/01/12 10:20:45;;;;;;;2.50;0.98;;;18.20;71.00;;;;;;7406464;19;19922;-69
2023/01/12 10:23:23;;;;;;;3.45;0.30;;;18.10;71.00;;;;;;7405276;19;19987;-69
2023/01/12 10:25:58;;;;;;;3.33;0.75;;;18.10;71.00;;;;;;7409470;19;20464;-70
2023/01/12 10:28:29;;;;;;;3.40;0.93;;;18.10;71.00;;;;;;7404725;19;19939;-69
2023/01/12 10:30:59;;;;;;;1.92;0.68;;;18.10;71.10;;;;;;7403988;19;19929;-69
2023/01/12 10:33:31;;;;;;;3.08;0.85;;;18.10;71.10;;;;;;7406444;19;20377;-69
2023/01/12 10:36:03;;;;;;;1.90;0.15;;;18.10;71.10;;;;;;7406250;19;19938;-69
2023/01/12 10:38:37;;;;;;;2.45;0.60;;;18.10;71.20;;;;;;7408115;19;19918;-68
2023/01/12 10:41:13;;;;;;;3.40;0.20;;;18.00;71.20;;;;;;7403886;19;20243;-69
2023/01/12 10:43:46;;;;;;;2.95;0.90;;;18.10;71.40;;;;;;7402024;19;19915;-69
2023/01/12 10:46:20;;;;;;;2.80;0.30;;;18.10;71.30;;;;;;7403345;19;20353;-69
2023/01/12 10:48:50;;;;;;;2.65;0.85;;;18.10;71.30;;;;;;7404326;19;20380;-69
2023/01/12 10:51:30;;;;;;;2.38;0.85;;;18.20;71.20;;;;;;7403320;19;19926;-69
2023/01/12 10:54:05;;;;;;;3.05;0.40;;;18.20;71.20;;;;;;7405901;19;19918;-69
2023/01/12 10:56:38;;;;;;;1.85;0.30;;;18.30;71.10;;;;;;7406033;19;20400;-70
2023/01/12 10:59:20;;;;;;;1.90;0.10;;;18.40;71.10;;;;;;7405846;19;19919;-69
2023/01/12 11:01:51;;;;;;;2.70;0.40;;;18.40;70.90;;;;;;7403813;19;20296;-69
2023/01/12 11:04:23;;;;;;;1.98;0.90;;;18.50;70.90;;;;;;7404569;19;19915;-73
2023/01/12 11:07:01;;;;;;;2.92;0.50;;;18.60;70.70;;;;;;7391635;19;20317;-70
2023/01/12 11:09:33;;;;;;;3.42;1.20;;;18.60;70.70;;;;;;7398534;19;19922;-69
2023/01/12 11:12:04;;;;;;;3.28;0.73;;;18.70;70.70;;;;;;7404083;19;19930;-81
2023/01/12 11:14:36;;;;;;;5.13;0.50;;;18.70;70.60;;;;;;7406357;19;20281;-81
2023/01/12 11:17:35;;;;;;;2.28;0.55;;;18.80;70.70;;;;;;7404995;19;19948;-73
2023/01/12 11:20:08;;;;;;;1.60;0.55;;;18.80;70.80;;;;;;7404924;19;19982;-75
2023/01/12 11:22:39;;;;;;;2.88;0.45;;;18.80;70.80;;;;;;7402605;19;20341;-66
2023/01/12 11:25:19;;;;;;;3.85;0.57;;;18.80;70.80;;;;;;7402948;19;19927;-69
2023/01/12 11:27:52;;;;;;;3.20;0.75;;;18.80;70.80;;;;;;7403922;19;19965;-70
2023/01/12 11:30:26;;;;;;;4.13;0.63;;;18.80;71.00;;;;;;7401235;19;19923;-70
2023/01/12 11:33:00;;;;;;;2.15;0.30;;;18.80;71.00;;;;;;7403478;19;19922;-70
2023/01/12 11:35:36;;;;;;;1.50;0.17;;;18.80;71.00;;;;;;7400871;19;19986;-70
2023/01/12 11:38:12;;;;;;;2.47;0.70;;;18.80;71.10;;;;;;7401715;19;19919;-70
2023/01/12 11:40:43;;;;;;;;;;;18.80;71.10;;;;;;7407657;19;19922;-70
2023/01/12 11:46:18;;;;;;;2.42;1.02;;;18.80;71.30;;;;;;7403706;19;19929;-70
2023/01/12 11:48:53;;;;;;;3.38;0.63;;;18.80;71.30;;;;;;7402795;19;19914;-71
2023/01/12 11:51:22;;;;;;;1.67;0.35;;;18.70;71.20;;;;;;7402831;19;19934;-70
2023/01/12 11:53:52;;;;;;;2.60;1.02;;;18.80;71.30;;;;;;7403247;19;19922;-70
2023/01/12 11:56:40;;;;;;;3.00;0.65;;;18.70;71.40;;;;;;7401594;19;19922;-71
2023/01/12 11:59:21;;;;;;;3.80;0.85;;;18.70;71.50;;;;;;7407548;19;19914;-70
2023/01/12 12:01:59;;;;;;;1.90;0.22;;;18.70;71.50;;;;;;7409390;19;19974;-70
2023/01/12 12:04:45;;;;;;;3.58;1.33;;;18.70;71.60;;;;;;7410005;19;19915;-71
2023/01/12 12:07:29;;;;;;;2.42;0.68;;;18.70;71.60;;;;;;7408088;19;19963;-71
2023/01/12 12:10:21;;;;;;;1.85;0.30;;;18.70;71.70;;;;;;7408152;19;19914;-68
2023/01/12 12:13:29;;;;;;;3.22;0.82;;;18.70;71.80;;;;;;7408703;19;19974;-68
2023/01/12 12:16:11;;;;;;;3.72;0.28;;;18.70;71.90;;;;;;7408159;19;20379;-63
2023/01/12 12:18:51;;;;;;;1.85;0.50;;;18.70;71.90;;;;;;7411017;19;19940;-72
2023/01/12 12:21:37;;;;;;;3.22;0.30;;;18.70;71.90;;;;;;7408938;19;19919;-73
2023/01/12 12:24:19;;;;;;;2.85;0.75;;;18.70;72.00;;;;;;7409698;19;20001;-73
2023/01/12 12:26:57;;;;;;;2.50;0.80;;;18.70;72.10;;;;;;7407071;19;19947;-67
2023/01/12 12:29:43;;;;;;;3.63;0.38;;;18.70;72.10;;;;;;7407244;19;20317;-67
2023/01/12 12:32:22;;;;;;;2.80;0.52;;;18.70;72.20;;;;;;7408055;19;19982;-68
2023/01/12 12:35:05;;;;;;;2.17;0.25;;;18.70;72.80;;;;;;7409617;19;19919;-67
2023/01/12 12:37:50;;;;;;;3.08;0.30;;;18.70;72.20;;;;;;7406446;19;19918;-68
2023/01/12 12:45:14;;;;;;;2.78;0.50;;;18.60;72.20;;;;;;7409194;19;20014;-68
2023/01/12 12:46:29;;;;;;;2.85;0.32;;;18.60;72.30;;;;;;7406371;19;20265;-67
2023/01/12 12:49:03;;;;;;;4.28;0.88;;;18.60;72.30;;;;;;7407709;19;19911;-67
2023/01/12 12:51:35;;;;;;;2.97;0.85;;;18.60;72.40;;;;;;7408602;19;19911;-69
2023/01/12 12:54:07;;;;;;;3.53;0.30;;;18.60;72.50;;;;;;7410078;19;20441;-70
2023/01/12 12:56:38;;;;;;;2.80;0.57;;;18.60;72.50;;;;;;7407030;19;19978;-70
2023/01/12 12:59:07;;;;;;;3.15;0.30;;;18.60;72.60;;;;;;7410046;19;19918;-69
2023/01/12 13:01:42;;;;;;;2.33;0.32;;;18.50;72.50;;;;;;7409868;19;19927;-70
2023/01/12 13:04:13;;;;;;;3.58;0.70;;;18.50;72.70;;;;;;7408074;19;19923;-69
2023/01/12 13:06:45;;;;;;;2.75;0.90;;;18.50;72.70;;;;;;7410521;19;19919;-70
2023/01/12 13:09:42;;;;;;;3.10;1.05;;;18.50;72.70;;;;;;7410189;19;19919;-69
2023/01/12 13:12:26;;;;;;;2.40;0.50;;;18.50;72.90;;;;;;7408961;19;19919;-70
2023/01/12 13:15:35;;;;;;;2.42;0.60;;;18.50;73.00;;;;;;7407951;19;19922;-70
2023/01/12 13:18:07;;;;;;;3.92;0.80;;;18.40;72.90;;;;;;7404733;19;19933;-70
2023/01/12 13:20:49;;;;;;;2.50;0.40;;;18.40;72.90;;;;;;7404374;19;20279;-70
2023/01/12 13:23:49;;;;;;;3.22;0.88;;;18.40;73.00;;;;;;7404984;19;20355;-70
2023/01/12 13:26:51;;;;;;;4.50;1.10;;;18.40;73.00;;;;;;7408122;19;19947;-70
2023/01/12 13:29:43;;;;;;;3.83;0.32;;;18.40;73.10;;;;;;7412279;19;20233;-70
2023/01/12 13:32:36;;;;;;;2.85;0.60;;;18.40;73.10;;;;;;7404561;19;19982;-70
2023/01/12 13:35:39;;;;;;;2.72;0.75;;;18.30;73.10;;;;;;7408744;19;19941;-69
2023/01/12 13:38:17;;;;;;;4.03;0.75;;;18.30;73.20;;;;;;7401589;19;20364;-70
2023/01/12 13:40:46;;;;;;;2.03;0.80;;;18.30;73.30;;;;;;7404420;19;19930;-70
2023/01/12 13:43:20;;;;;;;3.15;1.25;;;18.30;73.20;;;;;;7404404;19;19922;-70
2023/01/12 13:45:53;;;;;;;2.38;1.10;;;18.30;73.30;;;;;;7406432;19;19915;-70
2023/01/12 13:48:23;;;;;;;3.17;0.70;;;18.30;73.40;;;;;;7406465;19;19922;-69
2023/01/12 13:50:59;;;;;;;1.83;0.17;;;18.20;73.40;;;;;;7402336;19;19926;-70
2023/01/12 13:53:30;;;;;;;2.70;1.08;;;18.20;73.40;;;;;;7405243;19;19929;-70
2023/01/12 13:56:01;;;;;;;2.63;0.70;;;18.20;73.40;;;;;;7407836;19;20360;-69